WOCE UOT banner image
 
You are here: WOCE-UOT > WOCE UOT Inventory

* WOCE UOT Inventory

The following inventory listing shows a Top table inventory of the WOCE UOT compressed data files. This table shows the minimum and maximum of the entire compressed file. A tab- delimited ASCII text file of the Top table inventory is included on this disk for use in the WOCE DVD search tool. In addition, we have included on this disk a tab-delimited Sub inventory table file (120MB, 953,265 lines). The Sub inventory is of the individual netCDF files contained within those compressed files and has the min and max of every individual file within that compressed file.

cd_name file_path file_compressed_name woce_date_min woce_date_max latitude_min latitude_max longitude_westmost longitude_eastmost depth_min depth_max temperature_min temperature_max salinity_min salinity_max
woce-uot ./data/basins/dc/atlantic/1990/q1/ atq11990.tgz 19900101 19900331 -67.2661 68.0000 -94.7336 19.9833 0.00 5153.00 -2.00 28.78 1.05 36.81
woce-uot ./data/basins/dc/atlantic/1990/q2/ atq21990.tgz 19900401 19900630 -60.7300 68.0200 -91.1200 19.9833 0.00 5900.00 -1.81 29.72 1.02 36.91
woce-uot ./data/basins/dc/atlantic/1990/q3/ atq31990.tgz 19900701 19900930 5.4000 89.9333 -94.6408 19.9833 0.00 4489.00 -2.14 31.39 2.28 37.61
woce-uot ./data/basins/dc/atlantic/1990/q4/ atq41990.tgz 19901001 19901231 -70.9933 73.9767 -96.8953 19.9300 0.00 5037.00 -1.93 32.60 2.39 39.18
woce-uot ./data/basins/dc/atlantic/1991/q1/ atq11991.tgz 19910101 19910331 -76.5350 76.5000 -94.9903 19.9667 0.00 5856.00 -2.03 38.46 2.35 39.25
woce-uot ./data/basins/dc/atlantic/1991/q2/ atq21991.tgz 19910401 19910630 -48.6500 77.0000 -96.9667 19.9750 0.00 4278.20 -2.00 32.10 0.00 39.24
woce-uot ./data/basins/dc/atlantic/1991/q3/ atq31991.tgz 19910701 19910930 -50.9000 79.7500 -96.8100 19.9800 0.00 4279.80 -2.40 32.75 0.64 39.24
woce-uot ./data/basins/dc/atlantic/1991/q4/ atq41991.tgz 19911001 19911231 -61.4300 74.8333 -96.4000 19.9750 0.00 4206.40 -1.81 34.00 0.03 39.83
woce-uot ./data/basins/dc/atlantic/1992/q1/ atq11992.tgz 19920101 19920331 -70.6483 70.4833 -95.1533 19.9833 0.00 4653.00 -2.36 32.20 2.13 36.90
woce-uot ./data/basins/dc/atlantic/1992/q2/ atq21992.tgz 19920401 19920630 -56.0433 74.4800 -96.9600 19.8600 0.00 4919.00 -1.86 30.30 0.08 37.50
woce-uot ./data/basins/dc/atlantic/1992/q3/ atq31992.tgz 19920701 19920930 -61.3733 78.4336 -94.7278 19.9800 0.00 6356.00 -2.40 30.43 2.09 38.02
woce-uot ./data/basins/dc/atlantic/1992/q4/ atq41992.tgz 19921001 19921231 -70.9419 71.0003 -96.5600 19.7167 0.00 6037.00 -1.91 31.83 0.00 36.86
woce-uot ./data/basins/dc/atlantic/1993/q1/ atq11993.tgz 19930101 19930331 -69.0000 76.0000 -96.0667 19.9833 0.00 6051.00 -1.97 29.40 7.41 39.23
woce-uot ./data/basins/dc/atlantic/1993/q2/ atq21993.tgz 19930401 19930630 -54.7833 84.9000 -96.0100 19.9833 0.00 4279.80 -1.99 29.47 7.07 39.12
woce-uot ./data/basins/dc/atlantic/1993/q3/ atq31993.tgz 19930701 19930930 -49.1000 82.7633 -94.0300 19.9833 0.00 4873.00 -1.85 33.51 6.97 37.47
woce-uot ./data/basins/dc/atlantic/1993/q4/ atq41993.tgz 19931001 19931231 -51.9119 77.2500 -97.0500 19.8333 0.00 4741.00 -1.79 30.60 0.05 36.71
woce-uot ./data/basins/dc/atlantic/1994/q1/ atq11994.tgz 19940101 19940331 -75.1700 75.6300 -96.5833 19.9833 0.00 4053.00 -2.02 28.36 7.14 36.65
woce-uot ./data/basins/dc/atlantic/1994/q2/ atq21994.tgz 19940401 19940630 -62.9900 75.8333 -96.8300 19.9167 0.00 7075.00 -1.89 29.54 0.40 36.76
woce-uot ./data/basins/dc/atlantic/1994/q3/ atq31994.tgz 19940701 19940930 -39.3333 77.0000 -96.5531 19.9500 0.00 3657.00 -1.87 30.17 6.90 36.84
woce-uot ./data/basins/dc/atlantic/1994/q4/ atq41994.tgz 19941001 19941231 -70.9331 71.4167 -92.1700 19.9833 0.00 5517.00 -2.20 29.42 6.52 36.84
woce-uot ./data/basins/dc/atlantic/1995/q1/ atq11995.tgz 19950101 19950331 -77.6350 75.5000 -79.9167 19.9000 0.00 4932.00 -2.40 33.84 6.81 36.76
woce-uot ./data/basins/dc/atlantic/1995/q2/ atq21995.tgz 19950401 19950630 -55.9400 73.8300 -80.8883 19.9500 0.00 4964.00 -1.90 28.65 6.71 36.69
woce-uot ./data/basins/dc/atlantic/1995/q3/ atq31995.tgz 19950701 19950930 -11.1800 77.0500 -79.1000 19.9333 0.00 3309.00 -1.93 31.86 7.04 35.56
woce-uot ./data/basins/dc/atlantic/1995/q4/ atq41995.tgz 19951001 19951231 -59.4283 70.6600 -78.5333 19.9800 0.00 4192.00 -1.82 34.42 6.60 35.86
woce-uot ./data/basins/dc/atlantic/1996/q1/ atq11996.tgz 19960101 19960331 -63.6667 63.8350 -80.4000 19.8800 0.00 5674.00 -1.79 28.81 6.36 39.94
woce-uot ./data/basins/dc/atlantic/1996/q2/ atq21996.tgz 19960401 19960630 -70.9781 76.1933 -70.9333 19.9800 0.00 5806.00 -1.92 29.92 6.74 36.49
woce-uot ./data/basins/dc/atlantic/1996/q3/ atq31996.tgz 19960701 19960930 -20.5700 64.8500 -80.0900 19.7600 0.00 2000.00 -1.95 34.10 5.99 35.61
woce-uot ./data/basins/dc/atlantic/1996/q4/ atq41996.tgz 19961001 19961231 -65.1167 62.3333 -79.1833 19.9333 0.00 2730.00 -1.33 29.52 6.57 35.85
woce-uot ./data/basins/dc/atlantic/1997/q1/ atq11997.tgz 19970101 19970331 -12.7500 62.2100 -70.6667 19.9100 0.00 904.00 -1.95 28.76 6.72 35.09
woce-uot ./data/basins/dc/atlantic/1997/q2/ atq21997.tgz 19970401 19970630 -12.0700 63.4100 -67.5500 19.9000 0.00 1848.00 -1.69 28.18 6.71 35.56
woce-uot ./data/basins/dc/atlantic/1997/q3/ atq31997.tgz 19970701 19970930 -11.7700 65.5167 -69.5333 19.9833 0.00 4318.00 -2.50 28.50 3.16 35.68
woce-uot ./data/basins/dc/atlantic/1997/q4/ atq41997.tgz 19971001 19971230 -11.8000 60.9667 -68.2200 19.6333 0.00 5555.00 -1.51 32.30 5.17 35.25
woce-uot ./data/basins/dc/atlantic/1998/q1/ atq11998.tgz 19980101 19980331 -11.0500 63.5500 -76.2650 19.9500 0.00 2745.00 -1.73 30.19 6.23 36.49
woce-uot ./data/basins/dc/atlantic/1998/q2/ atq21998.tgz 19980401 19980630 -21.5700 65.1333 -81.6800 19.9333 0.00 4901.00 -1.58 30.82 5.84 36.47
woce-uot ./data/basins/dc/atlantic/1998/q3/ atq31998.tgz 19980701 19980930 -11.4700 88.1000 -70.8500 18.6833 0.00 1831.00 -1.90 29.29 6.59 36.92
woce-uot ./data/basins/dc/atlantic/1998/q4/ atq41998.tgz 19981001 19981231 -11.0000 65.3333 -75.4500 19.7167 0.00 1828.00 -1.50 30.31 6.59 37.00
woce-uot ./data/basins/dc/atlantic/1999/q1/ atq11999.tgz 19990101 19990331 -70.3400 75.7167 -95.4667 19.9833 0.00 1891.50 -2.50 34.97 5.40 36.85
woce-uot ./data/basins/dc/atlantic/1999/q2/ atq21999.tgz 19990401 19990630 -64.4900 74.9000 -96.6000 19.5800 0.00 1829.00 -2.20 35.00 5.62 36.93
woce-uot ./data/basins/dc/atlantic/1999/q3/ atq31999.tgz 19990701 19990930 -61.5000 74.5333 -97.0000 19.8600 0.00 1712.00 -1.99 34.92 6.50 37.00
woce-uot ./data/basins/dc/atlantic/1999/q4/ atq41999.tgz 19991001 19991231 -64.2117 73.5667 -97.1667 19.5667 0.00 2065.00 -1.95 30.35 26.35 36.86
woce-uot ./data/basins/dc/atlantic/2000/q1/ atq12000.tgz 20000101 20000331 -76.9667 79.9500 -97.3667 19.4000 0.00 2044.00 -2.15 33.80 6.94 37.53
woce-uot ./data/basins/dc/atlantic/2000/q2/ atq22000.tgz 20000401 20000630 -64.7500 79.6000 -97.3667 19.9833 0.00 4905.00 -1.80 34.39 6.57 37.42
woce-uot ./data/basins/dc/atlantic/2000/q3/ atq32000.tgz 20000701 20000930 -57.7167 77.0839 -97.1833 19.9167 0.00 2328.00 -1.70 35.00 5.89 37.49
woce-uot ./data/basins/dc/atlantic/2000/q4/ atq42000.tgz 20001001 20001231 -71.6000 77.0369 -96.7000 19.4833 0.00 2059.00 -2.08 34.37 6.27 37.41
woce-uot ./data/basins/dc/indian/1990/q1/ inq11990.tgz 19900101 19900331 -66.5669 26.9833 24.3500 144.9000 0.00 3736.00 -9.99 32.88 33.48 35.58
woce-uot ./data/basins/dc/indian/1990/q2/ inq21990.tgz 19900401 19900630 -42.8000 27.1300 33.1967 144.8670 0.00 3509.00 -2.16 33.50 32.58 35.54
woce-uot ./data/basins/dc/indian/1990/q3/ inq31990.tgz 19900701 19900930 -38.0167 29.4167 32.5833 144.9850 0.00 1898.00 2.38 34.10 34.44 35.68
woce-uot ./data/basins/dc/indian/1990/q4/ inq41990.tgz 19901001 19901231 -51.5000 27.8417 20.9000 144.9000 0.00 908.00 5.50 33.90    
woce-uot ./data/basins/dc/indian/1991/q1/ inq11991.tgz 19910101 19910331 -68.9750 26.7417 32.9833 144.7350 0.00 2002.00 -2.11 30.98 30.74 35.56
woce-uot ./data/basins/dc/indian/1991/q2/ inq21991.tgz 19910401 19910630 -41.3481 27.5500 34.2667 145.0000 0.00 1998.00 2.32 32.51 33.30 35.76
woce-uot ./data/basins/dc/indian/1991/q3/ inq31991.tgz 19910701 19910929 -37.9100 24.0300 33.0000 144.8670 0.00 1012.90 -2.50 30.90 33.46 34.84
woce-uot ./data/basins/dc/indian/1991/q4/ inq41991.tgz 19911003 19911231 -35.4200 17.9600 50.6300 144.5500 0.00 3010.00 1.58 30.70 33.47 35.48
woce-uot ./data/basins/dc/indian/1992/q1/ inq11992.tgz 19920217 19920331 -67.4683 5.5500 21.0331 144.0000 0.00 4814.00 -1.79 29.20 30.69 35.32
woce-uot ./data/basins/dc/indian/1992/q2/ inq21992.tgz 19920404 19920623 -18.6500 28.9000 32.8500 134.1100 0.00 3941.10 1.44 30.45 34.74 39.95
woce-uot ./data/basins/dc/indian/1992/q3/ inq31992.tgz 19920714 19920807 -3.0600 13.3669 42.8881 118.5100 3.00 2008.90 2.73 30.52 34.77 39.89
woce-uot ./data/basins/dc/indian/1992/q4/ inq41992.tgz 19921008 19921231 -64.7600 24.3500 45.4833 144.9000 0.00 930.00 -1.67 32.27    
woce-uot ./data/basins/dc/indian/1993/q1/ inq11993.tgz 19930101 19930331 -66.4167 16.6800 21.4831 144.9670 0.00 5091.60 -1.90 29.90 5.01 9.95
woce-uot ./data/basins/dc/indian/1993/q2/ inq21993.tgz 19930401 19930629 -54.0800 13.3200 30.3000 144.8200 0.00 1830.00 0.20 31.22    
woce-uot ./data/basins/dc/indian/1993/q3/ inq31993.tgz 19930702 19930930 -45.0000 26.5667 28.4667 144.7200 0.00 947.00 2.79 32.50    
woce-uot ./data/basins/dc/indian/1993/q4/ inq41993.tgz 19931001 19931231 -65.8333 25.2800 41.3000 145.0000 0.00 1421.40 -1.62 30.71    
woce-uot ./data/basins/dc/indian/1994/q1/ inq11994.tgz 19940110 19940316 -69.0100 25.2000 39.6350 142.2400 0.00 1468.00 -1.73 30.26 33.83 34.22
woce-uot ./data/basins/dc/indian/1994/q2/ inq21994.tgz 19940403 19940629 -66.0000 24.9833 24.9717 142.7800 0.00 4736.00 -1.59 31.60 33.87 34.79
woce-uot ./data/basins/dc/indian/1994/q3/ inq31994.tgz 19940701 19940922 -38.3050 19.1800 31.4800 144.8200 0.00 943.70 4.26 32.77    
woce-uot ./data/basins/dc/indian/1994/q4/ inq41994.tgz 19941001 19941220 -31.1700 24.8000 32.9500 144.9330 0.00 931.30 4.57 31.83    
woce-uot ./data/basins/dc/indian/1995/q1/ inq11995.tgz 19950109 19950330 -31.8100 29.1833 31.5000 143.9500 0.00 1821.00 0.00 28.85    
woce-uot ./data/basins/dc/indian/1995/q2/ inq21995.tgz 19950402 19950622 -31.9400 22.6333 31.5000 141.9000 0.60 1821.00 3.47 30.15    
woce-uot ./data/basins/dc/indian/1995/q3/ inq31995.tgz 19950705 19950928 -42.9583 22.6317 31.5000 138.7170 0.00 949.90 4.31 33.20    
woce-uot ./data/basins/dc/indian/1995/q4/ inq41995.tgz 19951031 19951226 -31.9800 -3.4917 31.1700 115.6700 1.00 954.00 3.93 29.10    
woce-uot ./data/basins/dc/indian/1996/q1/ inq11996.tgz 19960101 19960329 -57.0000 28.2100 21.0100 131.1500 0.00 5554.00 -1.64 30.35 33.82 40.43
woce-uot ./data/basins/dc/indian/1996/q2/ inq21996.tgz 19960407 19960629 -15.0000 13.0300 42.0500 126.3800 0.00 904.00 5.66 33.36    
woce-uot ./data/basins/dc/indian/1996/q3/ inq31996.tgz 19960712 19960821 -20.5300 12.9200 52.1500 95.0350 0.00 916.00 5.67 29.23    
woce-uot ./data/basins/dc/indian/1996/q4/ inq41996.tgz 19961015 19961204 -17.4300 12.0200 48.3700 77.5500 3.00 905.00 5.85 29.14    
woce-uot ./data/basins/dc/indian/1997/q1/ inq11997.tgz 19970111 19970111 -0.7700 -0.7700 54.7300 54.7300 3.00 876.00 7.89 27.34    
woce-uot ./data/basins/dc/indian/1997/q2/ inq21997.tgz 19970403 19970622 -0.3000 22.0000 54.5000 69.4500 1.00 885.00 8.22 30.95    
woce-uot ./data/basins/dc/indian/1997/q3/ inq31997.tgz 19970705 19970705 11.8300 11.8300 72.9000 72.9000 1.00 460.00 27.60 28.34    
woce-uot ./data/basins/dc/indian/1997/q4/ inq41997.tgz 19971221 19971221 11.9700 11.9700 72.6800 72.6800 1.00 460.00 10.64 30.95    
woce-uot ./data/basins/dc/indian/1998/q4/ inq41998.tgz 19981208 19981228 -31.0500 14.3000 33.4167 94.8167 0.70 926.50 4.71 32.69    
woce-uot ./data/basins/dc/indian/1999/q1/ inq11999.tgz 19990101 19990331 -64.2500 24.7833 25.0000 144.9100 0.00 1032.00 -2.48 34.95    
woce-uot ./data/basins/dc/indian/1999/q2/ inq21999.tgz 19990401 19990630 -46.6733 24.7667 20.4867 144.9170 0.00 1032.00 -37.33 39.11    
woce-uot ./data/basins/dc/indian/1999/q3/ inq31999.tgz 19990701 19990930 -45.7500 25.2500 27.7450 144.9170 0.00 1000.00 -2.44 35.00    
woce-uot ./data/basins/dc/indian/1999/q4/ inq41999.tgz 19991001 19991231 -61.9667 28.8961 20.4700 144.8400 0.00 1620.00 -2.50 34.88    
woce-uot ./data/basins/dc/indian/2000/q1/ inq12000.tgz 20000101 20000331 -62.5333 27.8650 26.3333 144.9170 0.00 1000.00 -2.38 30.50    
woce-uot ./data/basins/dc/indian/2000/q2/ inq22000.tgz 20000401 20000630 -39.2000 20.4000 20.2333 144.9170 0.00 919.90 -2.39 33.31    
woce-uot ./data/basins/dc/indian/2000/q3/ inq32000.tgz 20000701 20000930 -33.5000 26.8700 27.7700 144.1830 0.00 2180.00 -2.48 34.97 33.36 39.94
woce-uot ./data/basins/dc/indian/2000/q4/ inq42000.tgz 20001001 20001231 -66.8700 26.2200 28.9300 144.9900 0.00 2211.00 -2.11 34.98 33.36 40.54
woce-uot ./data/basins/dc/pacific/1990/q1/ paq11990.tgz 19900122 19900331 30.9167 48.4500 -134.9670 -117.4000 0.00 1839.00 2.67 16.14    
woce-uot ./data/basins/dc/pacific/1990/q2/ paq21990.tgz 19900401 19900630 1.2000 49.8167 103.8830 -117.8330 0.00 1825.00 -0.11 30.81    
woce-uot ./data/basins/dc/pacific/1990/q3/ paq31990.tgz 19900701 19900930 -1.9500 51.9000 100.4300 -85.0100 0.00 857.00 3.14 30.42    
woce-uot ./data/basins/dc/pacific/1990/q4/ paq41990.tgz 19901001 19901218 -19.9000 50.1833 104.1000 -81.6600 0.00 877.00 3.64 30.40    
woce-uot ./data/basins/dc/pacific/1991/q1/ paq11991.tgz 19910226 19910328 32.6000 48.4833 -126.2000 -117.7830 0.00 761.00 3.85 21.95    
woce-uot ./data/basins/dc/pacific/1991/q2/ paq21991.tgz 19910402 19910627 32.3833 49.2833 -129.7670 -117.7000 0.00 764.00 2.56 16.89    
woce-uot ./data/basins/dc/pacific/1991/q3/ paq31991.tgz 19910707 19910930 -32.2333 49.9333 100.6670 -84.1000 0.00 1200.00 -2.00 30.13    
woce-uot ./data/basins/dc/pacific/1991/q4/ paq41991.tgz 19911001 19911231 -29.4000 48.7000 108.1000 -78.0800 0.00 1538.00 2.07 31.31 33.86 36.26
woce-uot ./data/basins/dc/pacific/1992/q1/ paq11992.tgz 19920101 19920331 -36.0333 54.3300 126.3000 -79.4500 0.00 800.00 2.76 30.73    
woce-uot ./data/basins/dc/pacific/1992/q2/ paq21992.tgz 19920401 19920630 -33.7500 59.2100 127.7830 -115.2670 0.00 1337.00 1.80 29.90    
woce-uot ./data/basins/dc/pacific/1992/q3/ paq31992.tgz 19920701 19920930 -39.1667 58.2000 119.0670 -71.7333 0.00 1829.00 0.80 30.10    
woce-uot ./data/basins/dc/pacific/1992/q4/ paq41992.tgz 19921001 19921223 -35.5300 50.0000 126.3300 -81.7333 0.00 1820.00 1.50 30.00    
woce-uot ./data/basins/dc/pacific/1993/q1/ paq11993.tgz 19930118 19930331 -8.2600 50.4000 126.3300 -93.5000 0.00 1818.00 3.04 29.60 23.94 31.26
woce-uot ./data/basins/dc/pacific/1993/q2/ paq21993.tgz 19930401 19930630 -25.4800 52.7500 118.7000 -81.3700 0.00 885.00 3.54 30.70    
woce-uot ./data/basins/dc/pacific/1993/q3/ paq31993.tgz 19930701 19930930 -25.5500 55.1833 119.5000 -79.5167 0.00 2004.00 1.00 30.14    
woce-uot ./data/basins/dc/pacific/1993/q4/ paq41993.tgz 19931001 19931231 -68.7833 52.1100 108.7200 -80.6500 0.00 2001.00 -2.00 30.45    
woce-uot ./data/basins/dc/pacific/1994/q1/ paq11994.tgz 19940117 19940324 6.1333 50.1500 166.8600 -79.4500 0.00 762.00 3.80 29.36    
woce-uot ./data/basins/dc/pacific/1994/q2/ paq21994.tgz 19940412 19940630 -32.1800 49.5667 126.3000 -79.4667 0.00 885.00 1.90 30.40    
woce-uot ./data/basins/dc/pacific/1994/q3/ paq31994.tgz 19940701 19940930 -35.3100 52.2833 117.1000 -81.0000 0.00 1200.00 0.62 30.91    
woce-uot ./data/basins/dc/pacific/1994/q4/ paq41994.tgz 19941001 19941230 -49.4500 49.8000 119.7000 -73.0800 0.00 886.00 2.20 30.41    
woce-uot ./data/basins/dc/pacific/1995/q1/ paq11995.tgz 19950109 19950331 -33.8333 54.3833 124.8500 -76.3000 0.00 828.00 3.70 29.65    
woce-uot ./data/basins/dc/pacific/1995/q2/ paq21995.tgz 19950405 19950629 -35.5833 51.4600 103.1500 -123.0170 0.00 1559.00 2.61 31.00 31.98 35.00
woce-uot ./data/basins/dc/pacific/1995/q3/ paq31995.tgz 19950701 19950930 -41.6000 58.4500 105.6830 -71.3500 0.00 1823.00 2.38 30.01 31.88 34.32
woce-uot ./data/basins/dc/pacific/1995/q4/ paq41995.tgz 19951001 19951231 -54.8667 53.6500 126.7020 -70.0167 0.00 1636.00 2.63 29.42 32.24 34.30
woce-uot ./data/basins/dc/pacific/1996/q1/ paq11996.tgz 19960102 19960331 -72.6000 51.3000 118.2000 -74.9000 0.00 1830.00 -2.00 30.97 32.47 34.29
woce-uot ./data/basins/dc/pacific/1996/q2/ paq21996.tgz 19960401 19960630 -42.2500 51.8500 110.7330 -82.2500 0.00 4325.60 -0.89 30.39 29.43 34.70
woce-uot ./data/basins/dc/pacific/1996/q3/ paq31996.tgz 19960701 19960930 -37.0000 54.3333 125.1000 -71.6833 0.00 1818.00 2.79 30.92    
woce-uot ./data/basins/dc/pacific/1996/q4/ paq41996.tgz 19961001 19961231 -39.0167 54.6167 122.6500 -71.4667 0.00 1835.00 1.47 30.65    
woce-uot ./data/basins/dc/pacific/1997/q1/ paq11997.tgz 19970110 19970331 -48.0300 50.6167 149.1700 -75.0500 1.00 1834.00 2.22 29.79    
woce-uot ./data/basins/dc/pacific/1997/q2/ paq21997.tgz 19970401 19970617 -45.6200 0.0000 172.9700 -76.4300 1.00 1835.00 2.72 29.61    
woce-uot ./data/basins/dc/pacific/1997/q3/ paq31997.tgz 19970704 19970930 -30.2800 19.9000 112.7500 -98.8200 1.00 899.00 4.88 29.88    
woce-uot ./data/basins/dc/pacific/1997/q4/ paq41997.tgz 19971004 19971218 -0.8700 -0.0200 172.6200 -98.3200 3.00 898.00 5.30 29.60    
woce-uot ./data/basins/dc/pacific/1998/q1/ paq11998.tgz 19980105 19980312 -0.6200 33.9800 139.9800 -102.6200 1.00 877.00 5.11 29.42    
woce-uot ./data/basins/dc/pacific/1998/q2/ paq21998.tgz 19980413 19980624 -21.1500 34.9000 111.2200 172.5200 1.00 929.00 5.17 31.37    
woce-uot ./data/basins/dc/pacific/1998/q3/ paq31998.tgz 19980704 19980911 -9.8500 21.3300 118.0200 173.0700 1.00 898.00 4.92 30.38    
woce-uot ./data/basins/dc/pacific/1998/q4/ paq41998.tgz 19981015 19981224 -5.9500 28.8500 143.0500 -100.6000 1.00 928.00 4.67 30.32    
woce-uot ./data/basins/dc/pacific/1999/q1/ paq11999.tgz 19990101 19990331 -52.2800 60.0000 100.1000 -73.6500 0.00 4044.00 -2.29 34.20 32.67 36.57
woce-uot ./data/basins/dc/pacific/1999/q2/ paq21999.tgz 19990401 19990630 -51.1167 59.7400 100.4450 -71.8167 0.00 3456.00 -1.82 34.89 31.42 36.69
woce-uot ./data/basins/dc/pacific/1999/q3/ paq31999.tgz 19990701 19990930 -39.2931 59.7500 103.8300 -71.6333 0.00 3972.00 -2.49 34.73 28.31 36.40
woce-uot ./data/basins/dc/pacific/1999/q4/ paq41999.tgz 19991001 19991231 -67.2500 59.6700 114.9380 -72.3333 0.00 3949.00 -1.76 34.50 32.30 36.28
woce-uot ./data/basins/dc/pacific/2000/q1/ paq12000.tgz 20000101 20000331 -52.4667 59.3333 112.5170 -74.4417 0.00 3949.00 -2.38 34.98 32.53 36.56
woce-uot ./data/basins/dc/pacific/2000/q2/ paq22000.tgz 20000401 20000630 -39.2883 59.3300 104.4400 -73.5333 0.00 5414.00 -2.45 34.95 30.50 36.30
woce-uot ./data/basins/dc/pacific/2000/q3/ paq32000.tgz 20000701 20000930 -43.3500 58.5000 100.5950 -72.9600 0.00 4247.00 -2.17 34.94 18.51 36.63
woce-uot ./data/basins/dc/pacific/2000/q4/ paq42000.tgz 20001001 20001231 -77.7000 59.5000 110.2600 -73.3333 0.00 4136.00 -2.23 34.99 31.78 36.60
woce-uot ./data/basins/sc/atlantic/1990/q1/ atq11990.tgz 19900101 19900331 -65.4000 69.8167 -97.4400 19.1333 0.00 2000.00 -2.20 34.00    
woce-uot ./data/basins/sc/atlantic/1990/q2/ atq21990.tgz 19900401 19900630 -57.8200 89.5900 -97.1267 19.9667 0.00 2000.00 -1.80 31.45    
woce-uot ./data/basins/sc/atlantic/1990/q3/ atq31990.tgz 19900701 19900930 -51.5000 77.3883 -98.6217 19.9500 0.00 1830.00 -2.10 32.51    
woce-uot ./data/basins/sc/atlantic/1990/q4/ atq41990.tgz 19901001 19901231 -70.2333 74.4500 -97.1500 19.1400 0.00 1990.00 -1.99 32.10    
woce-uot ./data/basins/sc/atlantic/1991/q1/ atq11991.tgz 19910101 19910331 -70.5000 57.6500 -95.0000 17.2667 0.00 1831.10 -2.20 33.04    
woce-uot ./data/basins/sc/atlantic/1991/q2/ atq21991.tgz 19910401 19910630 -50.4883 61.9000 -96.3333 15.8583 0.00 1513.00 -0.19 30.38    
woce-uot ./data/basins/sc/atlantic/1991/q3/ atq31991.tgz 19910701 19910930 -41.8400 84.8083 -93.3150 16.2417 0.00 1830.00 -1.93 33.64    
woce-uot ./data/basins/sc/atlantic/1991/q4/ atq41991.tgz 19911001 19911231 -61.7500 59.2667 -87.1267 15.7867 0.00 1515.00 -1.47 30.48    
woce-uot ./data/basins/sc/atlantic/1992/q1/ atq11992.tgz 19920101 19920331 -62.3000 73.2667 -93.4167 19.0667 0.00 1888.40 -2.03 30.57    
woce-uot ./data/basins/sc/atlantic/1992/q2/ atq21992.tgz 19920401 19920630 -50.1500 73.1500 -96.4500 18.9500 0.00 1832.00 -1.90 30.67    
woce-uot ./data/basins/sc/atlantic/1992/q3/ atq31992.tgz 19920701 19920930 -59.8000 80.5281 -95.1000 19.1000 0.00 1999.00 -2.00 56.40    
woce-uot ./data/basins/sc/atlantic/1992/q4/ atq41992.tgz 19921001 19921231 -70.8833 75.3500 -95.3100 18.9500 0.00 1999.00 -1.86 29.55    
woce-uot ./data/basins/sc/atlantic/1993/q1/ atq11993.tgz 19930101 19930331 -77.4333 77.3800 -96.2500 19.7800 0.00 2000.00 -1.93 33.00    
woce-uot ./data/basins/sc/atlantic/1993/q2/ atq21993.tgz 19930401 19930630 -57.8300 84.6667 -96.7500 18.9500 0.00 2000.00 -2.00 35.50    
woce-uot ./data/basins/sc/atlantic/1993/q3/ atq31993.tgz 19930701 19930930 -58.4700 74.7600 -94.7000 19.8500 0.00 1833.00 -2.00 30.90    
woce-uot ./data/basins/sc/atlantic/1993/q4/ atq41993.tgz 19931001 19931231 -61.8000 74.4800 -97.0500 19.3517 0.00 1215.00 -2.00 31.10    
woce-uot ./data/basins/sc/atlantic/1994/q1/ atq11994.tgz 19940101 19940331 -77.4500 74.4800 -95.0000 19.1800 0.00 1830.00 -2.20 30.49    
woce-uot ./data/basins/sc/atlantic/1994/q2/ atq21994.tgz 19940401 19940630 -63.4667 86.6000 -95.9433 19.9667 0.00 1830.00 -1.90 30.80    
woce-uot ./data/basins/sc/atlantic/1994/q3/ atq31994.tgz 19940701 19940930 -61.4300 79.0167 -95.7483 19.9667 0.00 1829.00 -1.70 31.60    
woce-uot ./data/basins/sc/atlantic/1994/q4/ atq41994.tgz 19941001 19941231 -67.1167 77.8300 -97.1833 19.9500 0.00 1830.00 -2.00 31.41    
woce-uot ./data/basins/sc/atlantic/1995/q1/ atq11995.tgz 19950101 19950331 -70.2133 75.6833 -95.7500 20.0000 0.00 1830.00 -2.00 31.78    
woce-uot ./data/basins/sc/atlantic/1995/q2/ atq21995.tgz 19950401 19950630 -56.7800 78.9833 -97.0000 19.0667 0.00 1830.00 -3.64 31.14    
woce-uot ./data/basins/sc/atlantic/1995/q3/ atq31995.tgz 19950701 19950930 -56.5500 79.9500 -96.8133 19.3000 0.00 1475.00 -3.64 31.50    
woce-uot ./data/basins/sc/atlantic/1995/q4/ atq41995.tgz 19951001 19951231 -56.1500 79.8500 -96.2283 19.8483 0.00 1830.00 -2.06 35.18    
woce-uot ./data/basins/sc/atlantic/1996/q1/ atq11996.tgz 19960101 19960331 -67.8333 74.8833 -94.8000 19.1000 0.00 1999.00 -2.40 36.39    
woce-uot ./data/basins/sc/atlantic/1996/q2/ atq21996.tgz 19960401 19960630 -61.9800 80.5600 -95.0000 19.8833 0.00 2010.00 -1.58 30.75    
woce-uot ./data/basins/sc/atlantic/1996/q3/ atq31996.tgz 19960701 19960930 -61.7200 64.9833 -94.9967 19.0667 0.00 1242.70 -1.86 31.21    
woce-uot ./data/basins/sc/atlantic/1996/q4/ atq41996.tgz 19961001 19961231 -61.6900 74.1000 -96.6950 19.7233 0.00 1830.00 -3.75 30.28    
woce-uot ./data/basins/sc/atlantic/1997/q1/ atq11997.tgz 19970101 19970331 -74.7300 70.7300 -79.9800 18.9500 0.00 1772.00 -1.60 31.26    
woce-uot ./data/basins/sc/atlantic/1997/q2/ atq21997.tgz 19970401 19970630 -63.8400 63.3167 -95.1100 19.0667 0.00 2010.00 -1.75 30.17    
woce-uot ./data/basins/sc/atlantic/1997/q3/ atq31997.tgz 19970701 19970930 -59.6500 76.3667 -85.8333 19.9500 0.00 2021.00 -1.79 32.25    
woce-uot ./data/basins/sc/atlantic/1997/q4/ atq41997.tgz 19971001 19971231 -62.9500 75.1500 -86.2600 17.8600 0.00 1830.00 -1.96 32.11    
woce-uot ./data/basins/sc/atlantic/1998/q1/ atq11998.tgz 19980101 19980331 -61.6600 71.1833 -88.0667 18.1133 0.00 2368.00 -3.75 34.07    
woce-uot ./data/basins/sc/atlantic/1998/q2/ atq21998.tgz 19980401 19980630 -64.5900 89.2500 -93.3883 17.8667 0.00 2164.00 -1.80 31.86    
woce-uot ./data/basins/sc/atlantic/1998/q3/ atq31998.tgz 19980701 19980930 -62.8200 88.3667 -92.6333 17.8167 0.00 1829.00 -1.90 30.83    
woce-uot ./data/basins/sc/atlantic/1998/q4/ atq41998.tgz 19981001 19981231 -61.9400 69.6833 -80.0017 18.3667 0.00 1276.00 -1.59 34.57    
woce-uot ./data/basins/sc/indian/1990/q1/ inq11990.tgz 19900101 19900331 -46.4500 25.9500 29.8833 144.8830 0.00 849.60 3.10 31.20    
woce-uot ./data/basins/sc/indian/1990/q2/ inq21990.tgz 19900401 19900630 -39.3167 26.3167 35.1000 144.8000 0.00 981.90 5.00 31.90 32.69 35.54
woce-uot ./data/basins/sc/indian/1990/q3/ inq31990.tgz 19900701 19900930 -39.0667 27.8500 29.0833 144.9830 0.00 884.80 4.70 32.78    
woce-uot ./data/basins/sc/indian/1990/q4/ inq41990.tgz 19901001 19901231 -66.6333 27.8667 25.7833 145.0000 0.00 873.40 -2.00 30.90    
woce-uot ./data/basins/sc/indian/1991/q1/ inq11991.tgz 19910101 19910331 -64.4167 27.0000 20.7800 144.9830 0.00 896.10 -1.90 30.55    
woce-uot ./data/basins/sc/indian/1991/q2/ inq21991.tgz 19910401 19910630 -31.9050 27.9167 31.5167 144.8470 0.00 907.50 4.90 32.05    
woce-uot ./data/basins/sc/indian/1991/q3/ inq31991.tgz 19910701 19910930 -43.3333 27.8167 33.0000 144.6830 0.00 914.70 4.60 32.90    
woce-uot ./data/basins/sc/indian/1991/q4/ inq41991.tgz 19911001 19911231 -44.0300 27.8333 31.1000 144.8330 0.00 941.60 4.80 31.66    
woce-uot ./data/basins/sc/indian/1992/q1/ inq11992.tgz 19920101 19920331 -69.5250 24.6000 21.2717 144.6170 0.00 4832.00 -2.13 31.88 30.64 34.76
woce-uot ./data/basins/sc/indian/1992/q2/ inq21992.tgz 19920401 19920630 -38.6117 26.2667 37.2000 145.0000 0.00 1830.00 3.12 31.91 33.59 35.15
woce-uot ./data/basins/sc/indian/1992/q3/ inq31992.tgz 19920701 19920930 -39.0833 29.8000 31.0333 144.9170 0.00 1829.00 3.38 32.28 33.89 34.69
woce-uot ./data/basins/sc/indian/1992/q4/ inq41992.tgz 19921001 19921231 -66.6200 27.8167 21.2850 144.5000 0.00 1830.60 -1.52 31.55    
woce-uot ./data/basins/sc/indian/1993/q1/ inq11993.tgz 19930101 19930330 -66.3800 29.2833 20.2100 145.0000 0.00 1833.00 -1.80 30.40    
woce-uot ./data/basins/sc/indian/1993/q2/ inq21993.tgz 19930401 19930630 -54.2700 26.6100 29.5667 145.0000 0.00 1830.00 -2.00 33.20 33.90 34.76
woce-uot ./data/basins/sc/indian/1993/q3/ inq31993.tgz 19930701 19930930 -54.0800 29.1833 23.2533 144.7700 0.00 1830.00 1.30 33.93    
woce-uot ./data/basins/sc/indian/1993/q4/ inq41993.tgz 19931001 19931231 -65.9000 27.8167 22.2783 144.9200 0.00 1286.10 -1.80 31.38    
woce-uot ./data/basins/sc/indian/1994/q1/ inq11994.tgz 19940101 19940331 -66.4000 29.5300 20.5667 145.0000 0.00 3021.00 -2.00 31.19 31.09 35.06
woce-uot ./data/basins/sc/indian/1994/q2/ inq21994.tgz 19940401 19940630 -56.0333 29.0000 20.0500 144.8500 0.00 1829.40 -1.23 31.90    
woce-uot ./data/basins/sc/indian/1994/q3/ inq31994.tgz 19940701 19940930 -41.5000 28.3667 29.8333 144.2800 0.00 2073.00 4.71 34.40    
woce-uot ./data/basins/sc/indian/1994/q4/ inq41994.tgz 19941001 19941231 -66.4350 28.3167 20.1783 144.9830 0.00 1829.90 -1.76 31.90    
woce-uot ./data/basins/sc/indian/1995/q1/ inq11995.tgz 19950101 19950331 -69.1000 28.4833 20.1667 145.0000 0.00 1833.00 -1.98 31.27    
woce-uot ./data/basins/sc/indian/1995/q2/ inq21995.tgz 19950401 19950630 -38.5333 24.1800 21.4100 144.9500 0.00 4394.00 1.13 31.14 13.45 35.89
woce-uot ./data/basins/sc/indian/1995/q3/ inq31995.tgz 19950701 19950930 -43.0000 27.4600 20.2500 144.1330 0.00 3884.00 0.98 34.00 0.00 35.88
woce-uot ./data/basins/sc/indian/1995/q4/ inq41995.tgz 19951001 19951231 -66.5000 25.1300 21.0300 145.0000 0.00 4421.00 -2.17 39.08 2.56 39.08
woce-uot ./data/basins/sc/indian/1996/q1/ inq11996.tgz 19960101 19960331 -66.6667 29.2100 20.3900 144.9830 0.00 2987.00 -1.83 30.53 34.80 40.89
woce-uot ./data/basins/sc/indian/1996/q2/ inq21996.tgz 19960401 19960630 -39.8000 29.6250 21.2800 144.6380 0.00 3020.00 1.80 33.10 34.75 38.28
woce-uot ./data/basins/sc/indian/1996/q3/ inq31996.tgz 19960701 19960930 -38.5200 28.3700 21.2183 144.4500 0.00 1000.00 4.40 34.20    
woce-uot ./data/basins/sc/indian/1996/q4/ inq41996.tgz 19961001 19961231 -66.3833 27.5500 20.5300 144.9830 0.00 1000.00 -2.04 31.70    
woce-uot ./data/basins/sc/indian/1997/q1/ inq11997.tgz 19970101 19970331 -66.3833 28.9333 25.8000 145.0000 0.00 4000.00 -1.87 30.70    
woce-uot ./data/basins/sc/indian/1997/q2/ inq21997.tgz 19970401 19970630 -39.1000 28.4167 20.9667 144.9000 0.00 1775.00 3.91 31.80    
woce-uot ./data/basins/sc/indian/1997/q3/ inq31997.tgz 19970701 19970930 -35.2733 28.4600 20.0100 144.3670 0.00 1826.50 3.99 33.50    
woce-uot ./data/basins/sc/indian/1997/q4/ inq41997.tgz 19971001 19971231 -66.0667 26.4500 21.0800 144.9830 0.00 1423.00 -1.91 31.50    
woce-uot ./data/basins/sc/indian/1998/q1/ inq11998.tgz 19980101 19980331 -66.7000 26.5167 20.6933 145.0000 0.00 1264.10 -1.93 31.12    
woce-uot ./data/basins/sc/indian/1998/q2/ inq21998.tgz 19980401 19980630 -39.3450 27.6333 26.6500 144.3670 0.00 1082.20 4.39 39.25    
woce-uot ./data/basins/sc/indian/1998/q3/ inq31998.tgz 19980701 19980930 -38.1333 26.5167 25.5683 144.9000 0.00 1000.00 4.20 32.50    
woce-uot ./data/basins/sc/indian/1998/q4/ inq41998.tgz 19981001 19981231 -66.5000 26.1800 21.1767 144.9500 0.00 1032.60 -1.88 31.31    
woce-uot ./data/basins/sc/pacific/1990/q1/ paq11990.tgz 19900101 19900331 -76.3400 60.6833 100.0500 -70.2667 0.00 5975.00 -1.87 37.80 25.67 39.52
woce-uot ./data/basins/sc/pacific/1990/q2/ paq21990.tgz 19900401 19900630 -55.3317 63.9836 100.1330 -72.2500 0.00 5804.00 -1.75 40.00 13.11 39.35
woce-uot ./data/basins/sc/pacific/1990/q3/ paq31990.tgz 19900701 19900930 -46.3900 62.0333 100.3330 -70.9250 0.00 8700.00 -1.40 32.80 17.07 39.12
woce-uot ./data/basins/sc/pacific/1990/q4/ paq41990.tgz 19901001 19901231 -74.9850 65.9883 103.4000 -70.9750 0.00 4962.00 -2.71 31.70 6.49 37.92
woce-uot ./data/basins/sc/pacific/1991/q1/ paq11991.tgz 19910101 19910331 -77.7300 60.0269 106.7330 -70.7000 0.00 8501.00 -2.20 33.82 30.74 37.00
woce-uot ./data/basins/sc/pacific/1991/q2/ paq21991.tgz 19910401 19910630 -46.2800 60.0600 100.2500 -70.2600 0.00 5404.00 -1.77 35.50 20.49 36.82
woce-uot ./data/basins/sc/pacific/1991/q3/ paq31991.tgz 19910701 19910930 -46.3500 61.2500 101.7500 -70.6800 0.00 5018.00 -2.00 34.97 12.24 36.99
woce-uot ./data/basins/sc/pacific/1991/q4/ paq41991.tgz 19911001 19911231 -74.1800 65.9300 103.0000 -70.1100 0.00 5915.00 -1.80 31.21 15.73 36.14
woce-uot ./data/basins/sc/pacific/1992/q1/ paq11992.tgz 19920101 19920331 -77.9833 60.0272 100.2770 -70.0950 0.00 5104.00 -1.90 33.50 25.49 36.35
woce-uot ./data/basins/sc/pacific/1992/q2/ paq21992.tgz 19920401 19920630 -45.6300 61.2606 106.2500 -70.2917 0.00 5935.00 -0.16 33.98 11.32 36.39
woce-uot ./data/basins/sc/pacific/1992/q3/ paq31992.tgz 19920701 19920930 -55.2250 65.9872 100.1170 -70.7000 0.00 5949.00 -2.00 34.94 7.12 36.44
woce-uot ./data/basins/sc/pacific/1992/q4/ paq41992.tgz 19921001 19921231 -75.9967 65.9886 105.5030 -70.0000 0.00 6013.40 -9.99 34.00 26.43 39.71
woce-uot ./data/basins/sc/pacific/1993/q1/ paq11993.tgz 19930101 19930331 -77.4450 61.2200 105.1500 -70.0000 0.00 6000.00 -1.99 31.01 6.81 36.31
woce-uot ./data/basins/sc/pacific/1993/q2/ paq21993.tgz 19930401 19930630 -67.5917 61.0836 104.5000 -70.0000 0.00 5784.00 -1.75 33.31 10.62 35.47
woce-uot ./data/basins/sc/pacific/1993/q3/ paq31993.tgz 19930701 19930930 -65.1400 65.9867 103.8050 -71.0667 0.00 6000.00 -1.71 33.49 13.66 35.66
woce-uot ./data/basins/sc/pacific/1993/q4/ paq41993.tgz 19931001 19931231 -73.3900 65.9867 101.0100 -70.0000 0.00 4595.90 -2.10 32.70 7.44 36.40
woce-uot ./data/basins/sc/pacific/1994/q1/ paq11994.tgz 19940101 19940331 -78.2533 60.0250 100.0100 -70.6483 0.00 5235.00 -2.13 32.77 24.44 35.46
woce-uot ./data/basins/sc/pacific/1994/q2/ paq21994.tgz 19940401 19940630 -69.8500 61.2381 104.6470 -70.7333 0.00 5850.00 -3.63 31.72 19.41 36.39
woce-uot ./data/basins/sc/pacific/1994/q3/ paq31994.tgz 19940701 19940930 -70.4600 61.8833 104.1870 -70.3500 0.00 6036.00 -2.63 32.65 22.97 36.18
woce-uot ./data/basins/sc/pacific/1994/q4/ paq41994.tgz 19941001 19941231 -67.1700 60.8731 105.3100 -70.1000 0.00 8382.00 -2.20 33.09 21.34 36.43
woce-uot ./data/basins/sc/pacific/1995/q1/ paq11995.tgz 19950101 19950331 -77.8500 60.6700 108.3670 -70.3200 0.00 1729.00 -2.10 34.98 27.42 33.00
woce-uot ./data/basins/sc/pacific/1995/q2/ paq21995.tgz 19950401 19950630 -68.2600 57.8683 101.0500 -71.4650 0.00 4014.00 -1.60 34.98 27.01 35.07
woce-uot ./data/basins/sc/pacific/1995/q3/ paq31995.tgz 19950701 19950930 -63.8800 60.8800 101.7170 -70.3500 0.00 951.90 -1.49 34.82 34.28 34.92
woce-uot ./data/basins/sc/pacific/1995/q4/ paq41995.tgz 19951001 19951231 -67.9000 61.0000 100.0670 -70.9000 0.00 3457.00 -1.83 34.97 33.42 36.36
woce-uot ./data/basins/sc/pacific/1996/q1/ paq11996.tgz 19960101 19960331 -77.6500 61.0000 104.3670 -70.0000 0.00 3039.00 -2.30 34.94 31.48 35.35
woce-uot ./data/basins/sc/pacific/1996/q2/ paq21996.tgz 19960401 19960630 -55.5000 59.2000 102.1170 -71.4400 0.00 3694.00 -1.86 34.36 23.65 36.06
woce-uot ./data/basins/sc/pacific/1996/q3/ paq31996.tgz 19960701 19960930 -55.7217 60.5100 104.0330 -70.7467 0.00 1211.00 -1.51 34.95 29.39 34.91
woce-uot ./data/basins/sc/pacific/1996/q4/ paq41996.tgz 19961001 19961231 -63.9167 60.1900 109.2330 -71.6300 0.00 2741.00 -1.83 34.96 33.99 34.07
woce-uot ./data/basins/sc/pacific/1997/q1/ paq11997.tgz 19970101 19970331 -55.9000 59.3600 109.6830 -70.2000 0.00 4572.00 -2.63 31.53 32.03 34.31
woce-uot ./data/basins/sc/pacific/1997/q2/ paq21997.tgz 19970401 19970630 -52.4100 60.8300 101.1300 -71.6700 0.00 1830.50 0.10 37.96 32.65 34.33
woce-uot ./data/basins/sc/pacific/1997/q3/ paq31997.tgz 19970701 19970930 -51.4700 59.5800 100.5380 -71.6700 0.00 1827.00 -1.60 34.58 31.42 34.70
woce-uot ./data/basins/sc/pacific/1997/q4/ paq41997.tgz 19971001 19971231 -66.5267 59.4200 108.1800 -71.3183 0.00 1829.00 -1.78 32.30 28.18 36.23
woce-uot ./data/basins/sc/pacific/1998/q1/ paq11998.tgz 19980101 19980331 -54.5333 59.6600 105.5800 -71.6900 0.00 1988.00 -0.30 36.22 32.37 36.45
woce-uot ./data/basins/sc/pacific/1998/q2/ paq21998.tgz 19980401 19980630 -55.2500 59.9500 104.2830 -73.2400 0.00 4241.00 -1.50 39.34 30.31 36.27
woce-uot ./data/basins/sc/pacific/1998/q3/ paq31998.tgz 19980701 19980930 -40.3333 59.6700 109.2670 -71.6900 0.00 3947.00 -0.50 33.10 28.71 39.19
woce-uot ./data/basins/sc/pacific/1998/q4/ paq41998.tgz 19981001 19981231 -70.9833 60.0533 100.2420 -71.6900 0.00 1298.00 -1.90 32.30 25.63 37.10
woce-uot ./data/basins/sc/pacific/1999/q1/ paq11999.tgz 19990101 19990331 -37.1000 57.0700 109.4000 -76.1667 0.60 1032.00 1.95 31.57    
woce-uot ./data/basins/sc/pacific/1999/q2/ paq21999.tgz 19990401 19990630 -38.2467 55.0833 100.4000 -75.4717 0.60 999.20 -0.67 36.47    
woce-uot ./data/basins/sc/pacific/1999/q3/ paq31999.tgz 19990701 19990930 -36.8450 58.4567 109.4170 -75.1117 0.60 1011.80 0.32 31.07    
woce-uot ./data/basins/sc/pacific/1999/q4/ paq41999.tgz 19991001 19991231 -37.2767 58.3317 117.0420 -80.5000 0.60 999.20 -0.53 33.10